sensor_id;sensor_type;location;lat;lon;timestamp;P1;durP1;ratioP1;P2;durP2;ratioP2
9140;SDS011;46330;50.822;7.126;2024-03-22T00:02:16;22.88;;;13.02;;
9140;SDS011;46330;50.822;7.126;2024-03-22T00:04:42;25.13;;;14.00;;
9140;SDS011;46330;50.822;7.126;2024-03-22T00:07:09;23.08;;;12.88;;
9140;SDS011;46330;50.822;7.126;2024-03-22T00:09:35;21.15;;;12.65;;
9140;SDS011;46330;50.822;7.126;2024-03-22T00:12:02;28.55;;;14.10;;
9140;SDS011;46330;50.822;7.126;2024-03-22T00:14:29;24.17;;;13.57;;
9140;SDS011;46330;50.822;7.126;2024-03-22T00:16:57;23.17;;;13.88;;
9140;SDS011;46330;50.822;7.126;2024-03-22T00:19:23;26.27;;;13.82;;
9140;SDS011;46330;50.822;7.126;2024-03-22T00:21:51;25.25;;;13.23;;
9140;SDS011;46330;50.822;7.126;2024-03-22T00:24:17;23.13;;;13.43;;
9140;SDS011;46330;50.822;7.126;2024-03-22T00:26:44;23.27;;;13.80;;
9140;SDS011;46330;50.822;7.126;2024-03-22T00:29:14;24.27;;;13.70;;
9140;SDS011;46330;50.822;7.126;2024-03-22T00:31:41;24.70;;;13.68;;
9140;SDS011;46330;50.822;7.126;2024-03-22T00:34:08;26.17;;;14.07;;
9140;SDS011;46330;50.822;7.126;2024-03-22T00:36:36;26.02;;;14.02;;
9140;SDS011;46330;50.822;7.126;2024-03-22T00:39:02;25.50;;;13.65;;
9140;SDS011;46330;50.822;7.126;2024-03-22T00:41:29;23.17;;;13.30;;
9140;SDS011;46330;50.822;7.126;2024-03-22T00:43:55;27.42;;;13.45;;
9140;SDS011;46330;50.822;7.126;2024-03-22T00:46:22;23.95;;;13.73;;
9140;SDS011;46330;50.822;7.126;2024-03-22T00:48:48;26.27;;;14.20;;
9140;SDS011;46330;50.822;7.126;2024-03-22T00:51:16;27.42;;;13.52;;
9140;SDS011;46330;50.822;7.126;2024-03-22T00:53:42;24.83;;;13.32;;
9140;SDS011;46330;50.822;7.126;2024-03-22T00:56:10;23.52;;;12.90;;
9140;SDS011;46330;50.822;7.126;2024-03-22T00:58:36;26.05;;;14.20;;
9140;SDS011;46330;50.822;7.126;2024-03-22T01:01:03;26.83;;;13.50;;
9140;SDS011;46330;50.822;7.126;2024-03-22T01:03:29;23.63;;;12.85;;
9140;SDS011;46330;50.822;7.126;2024-03-22T01:05:56;24.60;;;13.75;;
9140;SDS011;46330;50.822;7.126;2024-03-22T01:08:24;27.10;;;13.70;;
9140;SDS011;46330;50.822;7.126;2024-03-22T01:10:51;23.17;;;13.75;;
9140;SDS011;46330;50.822;7.126;2024-03-22T01:13:17;25.67;;;13.63;;
9140;SDS011;46330;50.822;7.126;2024-03-22T01:15:44;22.02;;;12.48;;
9140;SDS011;46330;50.822;7.126;2024-03-22T01:18:11;24.45;;;13.43;;
9140;SDS011;46330;50.822;7.126;2024-03-22T01:20:38;21.92;;;12.23;;
9140;SDS011;46330;50.822;7.126;2024-03-22T01:23:04;25.27;;;13.00;;
9140;SDS011;46330;50.822;7.126;2024-03-22T01:25:32;23.25;;;13.23;;
9140;SDS011;46330;50.822;7.126;2024-03-22T01:27:59;22.35;;;12.80;;
9140;SDS011;46330;50.822;7.126;2024-03-22T01:30:26;25.73;;;13.82;;
9140;SDS011;46330;50.822;7.126;2024-03-22T01:32:54;22.27;;;12.45;;
9140;SDS011;46330;50.822;7.126;2024-03-22T01:35:21;26.65;;;13.80;;
9140;SDS011;46330;50.822;7.126;2024-03-22T01:37:47;26.92;;;13.90;;
9140;SDS011;46330;50.822;7.126;2024-03-22T01:40:14;27.30;;;13.77;;
9140;SDS011;46330;50.822;7.126;2024-03-22T01:42:42;25.55;;;14.35;;
9140;SDS011;46330;50.822;7.126;2024-03-22T01:45:09;26.23;;;13.43;;
9140;SDS011;46330;50.822;7.126;2024-03-22T01:47:39;25.95;;;13.10;;
9140;SDS011;46330;50.822;7.126;2024-03-22T01:50:07;25.92;;;13.10;;
9140;SDS011;46330;50.822;7.126;2024-03-22T01:52:34;27.08;;;13.23;;
9140;SDS011;46330;50.822;7.126;2024-03-22T01:55:01;23.50;;;12.60;;
9140;SDS011;46330;50.822;7.126;2024-03-22T01:57:30;25.58;;;12.93;;
9140;SDS011;46330;50.822;7.126;2024-03-22T01:59:59;22.02;;;13.30;;
9140;SDS011;46330;50.822;7.126;2024-03-22T02:02:25;25.50;;;13.30;;
9140;SDS011;46330;50.822;7.126;2024-03-22T02:04:52;23.40;;;12.15;;
9140;SDS011;46330;50.822;7.126;2024-03-22T02:07:18;25.60;;;13.55;;
9140;SDS011;46330;50.822;7.126;2024-03-22T02:09:45;24.13;;;13.13;;
9140;SDS011;46330;50.822;7.126;2024-03-22T02:12:11;26.65;;;13.13;;
9140;SDS011;46330;50.822;7.126;2024-03-22T02:14:39;27.67;;;12.82;;
9140;SDS011;46330;50.822;7.126;2024-03-22T02:17:06;22.85;;;12.30;;
9140;SDS011;46330;50.822;7.126;2024-03-22T02:19:33;27.67;;;12.85;;
9140;SDS011;46330;50.822;7.126;2024-03-22T02:21:59;24.20;;;12.27;;
9140;SDS011;46330;50.822;7.126;2024-03-22T02:24:28;22.00;;;12.52;;
9140;SDS011;46330;50.822;7.126;2024-03-22T02:26:54;23.98;;;13.10;;
9140;SDS011;46330;50.822;7.126;2024-03-22T02:29:21;21.55;;;12.18;;
9140;SDS011;46330;50.822;7.126;2024-03-22T02:31:47;28.17;;;12.73;;
9140;SDS011;46330;50.822;7.126;2024-03-22T02:34:14;25.13;;;12.10;;
9140;SDS011;46330;50.822;7.126;2024-03-22T02:36:41;25.13;;;12.52;;
9140;SDS011;46330;50.822;7.126;2024-03-22T02:39:08;22.92;;;12.10;;
9140;SDS011;46330;50.822;7.126;2024-03-22T02:41:35;23.90;;;12.48;;
9140;SDS011;46330;50.822;7.126;2024-03-22T02:44:02;24.25;;;12.75;;
9140;SDS011;46330;50.822;7.126;2024-03-22T02:46:29;30.65;;;12.30;;
9140;SDS011;46330;50.822;7.126;2024-03-22T02:49:10;21.80;;;11.95;;
9140;SDS011;46330;50.822;7.126;2024-03-22T02:51:40;24.52;;;12.57;;
9140;SDS011;46330;50.822;7.126;2024-03-22T02:54:07;21.58;;;11.57;;
9140;SDS011;46330;50.822;7.126;2024-03-22T02:56:33;23.95;;;12.38;;
9140;SDS011;46330;50.822;7.126;2024-03-22T02:59:01;26.75;;;12.90;;
9140;SDS011;46330;50.822;7.126;2024-03-22T03:01:27;22.77;;;11.68;;
9140;SDS011;46330;50.822;7.126;2024-03-22T03:03:54;23.25;;;11.90;;
9140;SDS011;46330;50.822;7.126;2024-03-22T03:06:20;25.80;;;11.57;;
9140;SDS011;46330;50.822;7.126;2024-03-22T03:08:47;22.13;;;11.32;;
9140;SDS011;46330;50.822;7.126;2024-03-22T03:11:13;23.05;;;11.38;;
9140;SDS011;46330;50.822;7.126;2024-03-22T03:13:40;24.02;;;11.75;;
9140;SDS011;46330;50.822;7.126;2024-03-22T03:16:08;22.70;;;11.43;;
9140;SDS011;46330;50.822;7.126;2024-03-22T03:18:35;22.40;;;11.15;;
9140;SDS011;46330;50.822;7.126;2024-03-22T03:21:01;21.90;;;10.82;;
9140;SDS011;46330;50.822;7.126;2024-03-22T03:23:28;21.08;;;11.35;;
9140;SDS011;46330;50.822;7.126;2024-03-22T03:25:54;24.90;;;11.10;;
9140;SDS011;46330;50.822;7.126;2024-03-22T03:28:21;18.92;;;10.50;;
9140;SDS011;46330;50.822;7.126;2024-03-22T03:30:47;21.70;;;11.20;;
9140;SDS011;46330;50.822;7.126;2024-03-22T03:33:16;19.63;;;10.68;;
9140;SDS011;46330;50.822;7.126;2024-03-22T03:35:45;20.77;;;10.93;;
9140;SDS011;46330;50.822;7.126;2024-03-22T03:38:12;19.60;;;10.82;;
9140;SDS011;46330;50.822;7.126;2024-03-22T03:40:38;19.80;;;10.60;;
9140;SDS011;46330;50.822;7.126;2024-03-22T03:43:05;20.73;;;10.82;;
9140;SDS011;46330;50.822;7.126;2024-03-22T03:45:31;22.90;;;10.93;;
9140;SDS011;46330;50.822;7.126;2024-03-22T03:47:58;20.67;;;10.48;;
9140;SDS011;46330;50.822;7.126;2024-03-22T03:50:25;20.33;;;10.48;;
9140;SDS011;46330;50.822;7.126;2024-03-22T03:52:52;18.52;;;11.02;;
9140;SDS011;46330;50.822;7.126;2024-03-22T03:55:18;22.73;;;11.27;;
9140;SDS011;46330;50.822;7.126;2024-03-22T03:57:45;25.33;;;11.18;;
9140;SDS011;46330;50.822;7.126;2024-03-22T04:00:11;19.30;;;10.27;;
9140;SDS011;46330;50.822;7.126;2024-03-22T04:02:39;20.80;;;10.52;;
9140;SDS011;46330;50.822;7.126;2024-03-22T04:05:05;20.67;;;10.27;;
9140;SDS011;46330;50.822;7.126;2024-03-22T04:07:34;19.52;;;10.38;;
9140;SDS011;46330;50.822;7.126;2024-03-22T04:10:00;22.20;;;10.73;;
9140;SDS011;46330;50.822;7.126;2024-03-22T04:12:28;21.67;;;11.02;;
9140;SDS011;46330;50.822;7.126;2024-03-22T04:14:54;22.10;;;10.80;;
9140;SDS011;46330;50.822;7.126;2024-03-22T04:17:21;22.95;;;10.43;;
9140;SDS011;46330;50.822;7.126;2024-03-22T04:19:49;22.58;;;11.10;;
9140;SDS011;46330;50.822;7.126;2024-03-22T04:22:17;21.35;;;11.00;;
9140;SDS011;46330;50.822;7.126;2024-03-22T04:24:44;21.40;;;10.32;;
9140;SDS011;46330;50.822;7.126;2024-03-22T04:27:11;21.05;;;10.38;;
9140;SDS011;46330;50.822;7.126;2024-03-22T04:29:37;25.40;;;10.57;;
9140;SDS011;46330;50.822;7.126;2024-03-22T04:32:04;20.30;;;10.07;;
9140;SDS011;46330;50.822;7.126;2024-03-22T04:34:31;20.80;;;10.68;;
9140;SDS011;46330;50.822;7.126;2024-03-22T04:36:58;20.38;;;11.10;;
9140;SDS011;46330;50.822;7.126;2024-03-22T04:39:25;21.45;;;9.93;;
9140;SDS011;46330;50.822;7.126;2024-03-22T04:41:53;19.90;;;9.65;;
9140;SDS011;46330;50.822;7.126;2024-03-22T04:44:20;22.27;;;10.45;;
9140;SDS011;46330;50.822;7.126;2024-03-22T04:46:47;19.98;;;10.43;;
9140;SDS011;46330;50.822;7.126;2024-03-22T04:49:13;20.27;;;10.32;;
9140;SDS011;46330;50.822;7.126;2024-03-22T04:51:40;19.25;;;10.27;;
9140;SDS011;46330;50.822;7.126;2024-03-22T04:54:06;17.35;;;9.63;;
9140;SDS011;46330;50.822;7.126;2024-03-22T04:56:33;20.70;;;10.25;;
9140;SDS011;46330;50.822;7.126;2024-03-22T04:59:01;16.52;;;9.85;;
9140;SDS011;46330;50.822;7.126;2024-03-22T05:01:28;18.60;;;9.75;;
9140;SDS011;46330;50.822;7.126;2024-03-22T05:03:54;21.35;;;10.38;;
9140;SDS011;46330;50.822;7.126;2024-03-22T05:06:21;17.80;;;9.40;;
9140;SDS011;46330;50.822;7.126;2024-03-22T05:08:47;21.60;;;11.23;;
9140;SDS011;46330;50.822;7.126;2024-03-22T05:11:14;23.05;;;10.73;;
9140;SDS011;46330;50.822;7.126;2024-03-22T05:13:40;17.80;;;10.00;;
9140;SDS011;46330;50.822;7.126;2024-03-22T05:16:09;20.75;;;10.40;;
9140;SDS011;46330;50.822;7.126;2024-03-22T05:18:36;18.63;;;9.55;;
9140;SDS011;46330;50.822;7.126;2024-03-22T05:21:04;19.00;;;10.25;;
9140;SDS011;46330;50.822;7.126;2024-03-22T05:23:30;20.83;;;9.60;;
9140;SDS011;46330;50.822;7.126;2024-03-22T05:25:57;16.73;;;9.43;;
9140;SDS011;46330;50.822;7.126;2024-03-22T05:28:25;20.27;;;10.35;;
9140;SDS011;46330;50.822;7.126;2024-03-22T05:30:52;18.42;;;9.57;;
9140;SDS011;46330;50.822;7.126;2024-03-22T05:33:19;17.40;;;9.27;;
9140;SDS011;46330;50.822;7.126;2024-03-22T05:35:46;18.50;;;9.43;;
9140;SDS011;46330;50.822;7.126;2024-03-22T05:38:12;20.15;;;10.13;;
9140;SDS011;46330;50.822;7.126;2024-03-22T05:40:39;16.50;;;8.52;;
9140;SDS011;46330;50.822;7.126;2024-03-22T05:43:05;15.63;;;8.27;;
9140;SDS011;46330;50.822;7.126;2024-03-22T05:45:32;20.27;;;9.43;;
9140;SDS011;46330;50.822;7.126;2024-03-22T05:47:58;15.88;;;8.93;;
9140;SDS011;46330;50.822;7.126;2024-03-22T05:50:27;18.13;;;9.18;;
9140;SDS011;46330;50.822;7.126;2024-03-22T05:52:53;16.58;;;8.65;;
9140;SDS011;46330;50.822;7.126;2024-03-22T05:55:20;15.52;;;7.18;;
9140;SDS011;46330;50.822;7.126;2024-03-22T05:57:46;17.17;;;8.35;;
9140;SDS011;46330;50.822;7.126;2024-03-22T06:00:14;14.98;;;8.57;;
9140;SDS011;46330;50.822;7.126;2024-03-22T06:02:40;18.42;;;8.48;;
9140;SDS011;46330;50.822;7.126;2024-03-22T06:05:07;14.98;;;8.18;;
9140;SDS011;46330;50.822;7.126;2024-03-22T06:07:35;16.63;;;7.65;;
9140;SDS011;46330;50.822;7.126;2024-03-22T06:10:07;16.42;;;8.07;;
9140;SDS011;46330;50.822;7.126;2024-03-22T06:12:35;18.15;;;8.27;;
9140;SDS011;46330;50.822;7.126;2024-03-22T06:15:02;14.73;;;8.02;;
9140;SDS011;46330;50.822;7.126;2024-03-22T06:17:31;16.10;;;7.28;;
9140;SDS011;46330;50.822;7.126;2024-03-22T06:19:59;12.35;;;7.00;;
9140;SDS011;46330;50.822;7.126;2024-03-22T06:22:25;15.68;;;7.65;;
9140;SDS011;46330;50.822;7.126;2024-03-22T06:24:54;14.45;;;6.95;;
9140;SDS011;46330;50.822;7.126;2024-03-22T06:27:20;11.68;;;6.90;;
9140;SDS011;46330;50.822;7.126;2024-03-22T06:29:47;11.50;;;6.78;;
9140;SDS011;46330;50.822;7.126;2024-03-22T06:32:12;17.27;;;7.47;;
9140;SDS011;46330;50.822;7.126;2024-03-22T06:34:39;13.93;;;7.30;;
9140;SDS011;46330;50.822;7.126;2024-03-22T06:37:05;13.38;;;7.45;;
9140;SDS011;46330;50.822;7.126;2024-03-22T06:39:33;15.40;;;7.18;;
9140;SDS011;46330;50.822;7.126;2024-03-22T06:42:00;12.60;;;6.97;;
9140;SDS011;46330;50.822;7.126;2024-03-22T06:44:27;15.63;;;6.68;;
9140;SDS011;46330;50.822;7.126;2024-03-22T06:46:53;16.63;;;7.22;;
9140;SDS011;46330;50.822;7.126;2024-03-22T06:49:20;12.15;;;6.78;;
9140;SDS011;46330;50.822;7.126;2024-03-22T06:51:46;13.20;;;7.00;;
9140;SDS011;46330;50.822;7.126;2024-03-22T06:54:13;15.55;;;7.43;;
9140;SDS011;46330;50.822;7.126;2024-03-22T06:56:39;13.43;;;6.05;;
9140;SDS011;46330;50.822;7.126;2024-03-22T06:59:08;13.07;;;6.72;;
9140;SDS011;46330;50.822;7.126;2024-03-22T07:01:34;12.25;;;6.03;;
9140;SDS011;46330;50.822;7.126;2024-03-22T07:04:01;11.43;;;6.43;;
9140;SDS011;46330;50.822;7.126;2024-03-22T07:06:27;12.65;;;6.22;;
9140;SDS011;46330;50.822;7.126;2024-03-22T07:08:55;11.70;;;6.50;;
9140;SDS011;46330;50.822;7.126;2024-03-22T07:11:21;12.43;;;6.53;;
9140;SDS011;46330;50.822;7.126;2024-03-22T07:13:48;12.38;;;6.25;;
9140;SDS011;46330;50.822;7.126;2024-03-22T07:16:16;10.80;;;6.30;;
9140;SDS011;46330;50.822;7.126;2024-03-22T07:18:42;15.50;;;6.55;;
9140;SDS011;46330;50.822;7.126;2024-03-22T07:21:08;14.18;;;6.65;;
9140;SDS011;46330;50.822;7.126;2024-03-22T07:23:36;14.07;;;6.40;;
9140;SDS011;46330;50.822;7.126;2024-03-22T07:26:02;10.45;;;5.70;;
9140;SDS011;46330;50.822;7.126;2024-03-22T07:28:31;12.75;;;6.05;;
9140;SDS011;46330;50.822;7.126;2024-03-22T07:30:57;10.95;;;5.75;;
9140;SDS011;46330;50.822;7.126;2024-03-22T07:33:25;11.07;;;5.85;;
9140;SDS011;46330;50.822;7.126;2024-03-22T07:35:51;10.75;;;5.35;;
9140;SDS011;46330;50.822;7.126;2024-03-22T07:38:20;11.98;;;5.97;;
9140;SDS011;46330;50.822;7.126;2024-03-22T07:40:46;12.20;;;5.40;;
9140;SDS011;46330;50.822;7.126;2024-03-22T07:43:13;11.02;;;4.97;;
9140;SDS011;46330;50.822;7.126;2024-03-22T07:45:42;12.25;;;5.68;;
9140;SDS011;46330;50.822;7.126;2024-03-22T07:48:09;10.80;;;6.18;;
9140;SDS011;46330;50.822;7.126;2024-03-22T07:50:37;16.40;;;5.30;;
9140;SDS011;46330;50.822;7.126;2024-03-22T07:53:04;10.18;;;4.88;;
9140;SDS011;46330;50.822;7.126;2024-03-22T07:55:30;10.13;;;5.00;;
9140;SDS011;46330;50.822;7.126;2024-03-22T07:57:57;13.25;;;5.00;;
9140;SDS011;46330;50.822;7.126;2024-03-22T08:00:23;7.65;;;4.95;;
9140;SDS011;46330;50.822;7.126;2024-03-22T08:02:51;9.70;;;4.93;;
9140;SDS011;46330;50.822;7.126;2024-03-22T08:05:17;10.93;;;5.75;;
9140;SDS011;46330;50.822;7.126;2024-03-22T08:07:46;9.52;;;4.68;;
9140;SDS011;46330;50.822;7.126;2024-03-22T08:10:12;10.85;;;4.85;;
9140;SDS011;46330;50.822;7.126;2024-03-22T08:12:41;9.43;;;5.40;;
9140;SDS011;46330;50.822;7.126;2024-03-22T08:15:08;11.45;;;5.07;;
9140;SDS011;46330;50.822;7.126;2024-03-22T08:17:35;11.02;;;5.28;;
9140;SDS011;46330;50.822;7.126;2024-03-22T08:20:01;8.95;;;5.35;;
9140;SDS011;46330;50.822;7.126;2024-03-22T08:22:28;9.70;;;5.10;;
9140;SDS011;46330;50.822;7.126;2024-03-22T08:24:56;9.25;;;5.05;;
9140;SDS011;46330;50.822;7.126;2024-03-22T08:27:23;9.20;;;5.07;;
9140;SDS011;46330;50.822;7.126;2024-03-22T08:29:50;11.13;;;5.50;;
9140;SDS011;46330;50.822;7.126;2024-03-22T08:32:17;13.93;;;6.15;;
9140;SDS011;46330;50.822;7.126;2024-03-22T08:34:43;11.50;;;5.75;;
9140;SDS011;46330;50.822;7.126;2024-03-22T08:37:10;17.15;;;5.97;;
9140;SDS011;46330;50.822;7.126;2024-03-22T08:39:36;9.25;;;5.88;;
9140;SDS011;46330;50.822;7.126;2024-03-22T08:42:05;10.65;;;5.43;;
9140;SDS011;46330;50.822;7.126;2024-03-22T08:44:31;139.32;;;17.83;;
9140;SDS011;46330;50.822;7.126;2024-03-22T08:46:58;20.33;;;7.30;;
9140;SDS011;46330;50.822;7.126;2024-03-22T08:49:24;13.43;;;5.97;;
9140;SDS011;46330;50.822;7.126;2024-03-22T08:51:51;12.32;;;6.45;;
9140;SDS011;46330;50.822;7.126;2024-03-22T08:54:17;13.77;;;6.88;;
9140;SDS011;46330;50.822;7.126;2024-03-22T08:56:44;13.52;;;7.13;;
9140;SDS011;46330;50.822;7.126;2024-03-22T08:59:12;12.18;;;7.03;;
9140;SDS011;46330;50.822;7.126;2024-03-22T09:01:39;14.40;;;7.53;;
9140;SDS011;46330;50.822;7.126;2024-03-22T09:04:05;12.82;;;7.35;;
9140;SDS011;46330;50.822;7.126;2024-03-22T09:06:32;14.82;;;7.80;;
9140;SDS011;46330;50.822;7.126;2024-03-22T09:08:58;13.65;;;7.82;;
9140;SDS011;46330;50.822;7.126;2024-03-22T09:11:25;14.57;;;8.30;;
9140;SDS011;46330;50.822;7.126;2024-03-22T09:13:51;14.95;;;8.30;;
9140;SDS011;46330;50.822;7.126;2024-03-22T09:16:20;13.45;;;9.25;;
9140;SDS011;46330;50.822;7.126;2024-03-22T09:18:46;16.00;;;9.20;;
9140;SDS011;46330;50.822;7.126;2024-03-22T09:21:14;16.08;;;10.57;;
9140;SDS011;46330;50.822;7.126;2024-03-22T09:23:40;17.27;;;10.40;;
9140;SDS011;46330;50.822;7.126;2024-03-22T09:26:07;20.80;;;11.43;;
9140;SDS011;46330;50.822;7.126;2024-03-22T09:28:33;16.20;;;10.55;;
9140;SDS011;46330;50.822;7.126;2024-03-22T09:31:03;16.08;;;10.35;;
9140;SDS011;46330;50.822;7.126;2024-03-22T09:33:31;17.58;;;9.80;;
9140;SDS011;46330;50.822;7.126;2024-03-22T09:35:58;17.63;;;10.43;;
9140;SDS011;46330;50.822;7.126;2024-03-22T09:38:24;14.82;;;9.90;;
9140;SDS011;46330;50.822;7.126;2024-03-22T09:40:51;14.60;;;9.65;;
9140;SDS011;46330;50.822;7.126;2024-03-22T09:43:20;15.77;;;10.43;;
9140;SDS011;46330;50.822;7.126;2024-03-22T09:45:47;15.15;;;9.95;;
9140;SDS011;46330;50.822;7.126;2024-03-22T09:48:15;16.10;;;8.77;;
9140;SDS011;46330;50.822;7.126;2024-03-22T09:50:45;17.52;;;9.65;;
9140;SDS011;46330;50.822;7.126;2024-03-22T09:53:13;13.18;;;9.40;;
9140;SDS011;46330;50.822;7.126;2024-03-22T09:55:40;15.45;;;10.00;;
9140;SDS011;46330;50.822;7.126;2024-03-22T09:58:09;18.00;;;10.60;;
9140;SDS011;46330;50.822;7.126;2024-03-22T10:00:39;16.52;;;10.27;;
9140;SDS011;46330;50.822;7.126;2024-03-22T10:03:06;13.52;;;9.40;;
9140;SDS011;46330;50.822;7.126;2024-03-22T10:05:34;17.55;;;9.30;;
9140;SDS011;46330;50.822;7.126;2024-03-22T10:08:02;14.82;;;9.13;;
9140;SDS011;46330;50.822;7.126;2024-03-22T10:10:31;16.98;;;8.50;;
9140;SDS011;46330;50.822;7.126;2024-03-22T10:12:57;15.88;;;9.38;;
9140;SDS011;46330;50.822;7.126;2024-03-22T10:15:26;17.08;;;8.70;;
9140;SDS011;46330;50.822;7.126;2024-03-22T10:17:53;17.52;;;8.93;;
9140;SDS011;46330;50.822;7.126;2024-03-22T10:20:23;11.50;;;7.03;;
9140;SDS011;46330;50.822;7.126;2024-03-22T10:22:54;10.68;;;5.53;;
9140;SDS011;46330;50.822;7.126;2024-03-22T10:25:24;11.60;;;6.70;;
9140;SDS011;46330;50.822;7.126;2024-03-22T10:27:51;11.05;;;5.72;;
9140;SDS011;46330;50.822;7.126;2024-03-22T10:30:20;9.50;;;5.88;;
9140;SDS011;46330;50.822;7.126;2024-03-22T10:32:49;12.57;;;5.35;;
9140;SDS011;46330;50.822;7.126;2024-03-22T10:35:17;9.90;;;5.30;;
9140;SDS011;46330;50.822;7.126;2024-03-22T10:37:44;9.48;;;5.68;;
9140;SDS011;46330;50.822;7.126;2024-03-22T10:40:11;9.98;;;5.35;;
9140;SDS011;46330;50.822;7.126;2024-03-22T10:42:39;9.32;;;5.28;;
9140;SDS011;46330;50.822;7.126;2024-03-22T10:45:07;11.25;;;4.95;;
9140;SDS011;46330;50.822;7.126;2024-03-22T10:47:35;11.15;;;5.40;;
9140;SDS011;46330;50.822;7.126;2024-03-22T10:50:04;8.63;;;6.18;;
9140;SDS011;46330;50.822;7.126;2024-03-22T10:52:32;9.98;;;6.00;;
9140;SDS011;46330;50.822;7.126;2024-03-22T10:55:02;12.10;;;5.97;;
9140;SDS011;46330;50.822;7.126;2024-03-22T10:57:30;9.60;;;5.63;;
9140;SDS011;46330;50.822;7.126;2024-03-22T11:00:04;9.55;;;5.57;;
9140;SDS011;46330;50.822;7.126;2024-03-22T11:02:35;10.18;;;4.93;;
9140;SDS011;46330;50.822;7.126;2024-03-22T11:05:03;9.75;;;5.60;;
9140;SDS011;46330;50.822;7.126;2024-03-22T11:07:29;9.93;;;5.50;;
9140;SDS011;46330;50.822;7.126;2024-03-22T11:09:57;7.78;;;4.70;;
9140;SDS011;46330;50.822;7.126;2024-03-22T11:12:27;8.80;;;5.22;;
9140;SDS011;46330;50.822;7.126;2024-03-22T11:14:58;9.63;;;4.55;;
9140;SDS011;46330;50.822;7.126;2024-03-22T11:17:27;6.80;;;4.10;;
9140;SDS011;46330;50.822;7.126;2024-03-22T11:19:56;9.10;;;3.97;;
9140;SDS011;46330;50.822;7.126;2024-03-22T11:22:24;7.22;;;3.53;;
9140;SDS011;46330;50.822;7.126;2024-03-22T11:24:52;5.75;;;2.70;;
9140;SDS011;46330;50.822;7.126;2024-03-22T11:27:18;5.75;;;2.20;;
9140;SDS011;46330;50.822;7.126;2024-03-22T11:29:45;4.55;;;2.40;;
9140;SDS011;46330;50.822;7.126;2024-03-22T11:32:13;6.05;;;2.00;;
9140;SDS011;46330;50.822;7.126;2024-03-22T11:34:43;6.93;;;2.70;;
9140;SDS011;46330;50.822;7.126;2024-03-22T11:37:10;10.13;;;2.17;;
9140;SDS011;46330;50.822;7.126;2024-03-22T11:39:37;3.38;;;1.67;;
9140;SDS011;46330;50.822;7.126;2024-03-22T11:42:03;2.40;;;1.75;;
9140;SDS011;46330;50.822;7.126;2024-03-22T11:44:32;3.67;;;1.88;;
9140;SDS011;46330;50.822;7.126;2024-03-22T11:46:59;3.38;;;1.52;;
9140;SDS011;46330;50.822;7.126;2024-03-22T11:49:26;3.90;;;1.90;;
9140;SDS011;46330;50.822;7.126;2024-03-22T11:51:54;3.58;;;1.90;;
9140;SDS011;46330;50.822;7.126;2024-03-22T11:54:22;4.93;;;2.60;;
9140;SDS011;46330;50.822;7.126;2024-03-22T11:56:51;2.40;;;1.90;;
9140;SDS011;46330;50.822;7.126;2024-03-22T11:59:19;4.45;;;2.50;;
9140;SDS011;46330;50.822;7.126;2024-03-22T12:01:46;5.45;;;2.67;;
9140;SDS011;46330;50.822;7.126;2024-03-22T12:04:13;5.80;;;2.53;;
9140;SDS011;46330;50.822;7.126;2024-03-22T12:06:42;4.47;;;2.67;;
9140;SDS011;46330;50.822;7.126;2024-03-22T12:09:10;4.80;;;2.72;;
9140;SDS011;46330;50.822;7.126;2024-03-22T12:11:39;6.80;;;3.78;;
9140;SDS011;46330;50.822;7.126;2024-03-22T12:14:05;10.40;;;6.13;;
9140;SDS011;46330;50.822;7.126;2024-03-22T12:16:33;4.93;;;3.17;;
9140;SDS011;46330;50.822;7.126;2024-03-22T12:18:59;5.18;;;3.20;;
9140;SDS011;46330;50.822;7.126;2024-03-22T12:21:26;6.30;;;3.40;;
9140;SDS011;46330;50.822;7.126;2024-03-22T12:23:52;6.22;;;3.20;;
9140;SDS011;46330;50.822;7.126;2024-03-22T12:26:21;7.50;;;3.42;;
9140;SDS011;46330;50.822;7.126;2024-03-22T12:28:48;5.38;;;3.13;;
9140;SDS011;46330;50.822;7.126;2024-03-22T12:31:16;5.47;;;3.05;;
9140;SDS011;46330;50.822;7.126;2024-03-22T12:33:44;5.43;;;2.45;;
9140;SDS011;46330;50.822;7.126;2024-03-22T12:36:11;3.95;;;2.10;;
9140;SDS011;46330;50.822;7.126;2024-03-22T12:38:37;5.57;;;1.90;;
9140;SDS011;46330;50.822;7.126;2024-03-22T12:41:04;3.15;;;1.85;;
9140;SDS011;46330;50.822;7.126;2024-03-22T12:43:33;4.95;;;1.95;;
9140;SDS011;46330;50.822;7.126;2024-03-22T12:46:00;6.05;;;2.40;;
9140;SDS011;46330;50.822;7.126;2024-03-22T12:48:26;5.15;;;2.83;;
9140;SDS011;46330;50.822;7.126;2024-03-22T12:50:54;4.75;;;2.72;;
9140;SDS011;46330;50.822;7.126;2024-03-22T12:53:20;7.45;;;3.67;;
9140;SDS011;46330;50.822;7.126;2024-03-22T12:55:47;7.18;;;3.40;;
9140;SDS011;46330;50.822;7.126;2024-03-22T12:58:14;5.65;;;3.28;;
9140;SDS011;46330;50.822;7.126;2024-03-22T13:00:42;7.47;;;3.83;;
9140;SDS011;46330;50.822;7.126;2024-03-22T13:03:08;8.50;;;4.30;;
9140;SDS011;46330;50.822;7.126;2024-03-22T13:05:37;8.50;;;4.20;;
9140;SDS011;46330;50.822;7.126;2024-03-22T13:08:03;7.43;;;4.38;;
9140;SDS011;46330;50.822;7.126;2024-03-22T13:10:31;8.90;;;4.88;;
9140;SDS011;46330;50.822;7.126;2024-03-22T13:12:57;8.15;;;4.15;;
9140;SDS011;46330;50.822;7.126;2024-03-22T13:15:24;7.15;;;3.97;;
9140;SDS011;46330;50.822;7.126;2024-03-22T13:17:52;8.55;;;4.18;;
9140;SDS011;46330;50.822;7.126;2024-03-22T13:20:21;9.02;;;4.30;;
9140;SDS011;46330;50.822;7.126;2024-03-22T13:22:47;7.15;;;4.22;;
9140;SDS011;46330;50.822;7.126;2024-03-22T13:25:14;13.02;;;4.72;;
9140;SDS011;46330;50.822;7.126;2024-03-22T13:27:41;10.07;;;6.15;;
9140;SDS011;46330;50.822;7.126;2024-03-22T13:30:08;10.52;;;4.82;;
9140;SDS011;46330;50.822;7.126;2024-03-22T13:32:35;8.10;;;5.45;;
9140;SDS011;46330;50.822;7.126;2024-03-22T13:35:04;8.25;;;4.53;;
9140;SDS011;46330;50.822;7.126;2024-03-22T13:37:31;9.50;;;4.70;;
9140;SDS011;46330;50.822;7.126;2024-03-22T13:39:58;7.78;;;4.15;;
9140;SDS011;46330;50.822;7.126;2024-03-22T13:42:25;7.45;;;4.10;;
9140;SDS011;46330;50.822;7.126;2024-03-22T13:44:52;8.00;;;5.07;;
9140;SDS011;46330;50.822;7.126;2024-03-22T13:47:18;7.63;;;4.65;;
9140;SDS011;46330;50.822;7.126;2024-03-22T13:49:46;10.32;;;5.60;;
9140;SDS011;46330;50.822;7.126;2024-03-22T13:52:13;9.63;;;4.90;;
9140;SDS011;46330;50.822;7.126;2024-03-22T13:54:41;9.27;;;4.60;;
9140;SDS011;46330;50.822;7.126;2024-03-22T13:57:07;9.98;;;5.03;;
9140;SDS011;46330;50.822;7.126;2024-03-22T13:59:34;7.00;;;4.35;;
9140;SDS011;46330;50.822;7.126;2024-03-22T14:02:01;8.93;;;4.40;;
9140;SDS011;46330;50.822;7.126;2024-03-22T14:04:28;11.10;;;4.80;;
9140;SDS011;46330;50.822;7.126;2024-03-22T14:06:55;8.63;;;4.38;;
9140;SDS011;46330;50.822;7.126;2024-03-22T14:09:23;8.15;;;4.97;;
9140;SDS011;46330;50.822;7.126;2024-03-22T14:11:49;7.90;;;4.80;;
9140;SDS011;46330;50.822;7.126;2024-03-22T14:14:16;9.15;;;4.95;;
9140;SDS011;46330;50.822;7.126;2024-03-22T14:16:43;9.32;;;4.90;;
9140;SDS011;46330;50.822;7.126;2024-03-22T14:19:10;8.88;;;5.32;;
9140;SDS011;46330;50.822;7.126;2024-03-22T14:21:36;8.38;;;5.05;;
9140;SDS011;46330;50.822;7.126;2024-03-22T14:24:04;11.93;;;5.20;;
9140;SDS011;46330;50.822;7.126;2024-03-22T14:26:32;10.10;;;5.43;;
9140;SDS011;46330;50.822;7.126;2024-03-22T14:28:59;12.40;;;5.15;;
9140;SDS011;46330;50.822;7.126;2024-03-22T14:31:25;10.88;;;5.45;;
9140;SDS011;46330;50.822;7.126;2024-03-22T14:33:52;11.07;;;6.15;;
9140;SDS011;46330;50.822;7.126;2024-03-22T14:36:18;9.40;;;6.25;;
9140;SDS011;46330;50.822;7.126;2024-03-22T14:38:46;11.07;;;6.00;;
9140;SDS011;46330;50.822;7.126;2024-03-22T14:41:12;10.88;;;5.60;;
9140;SDS011;46330;50.822;7.126;2024-03-22T14:43:41;7.93;;;5.40;;
9140;SDS011;46330;50.822;7.126;2024-03-22T14:46:07;12.80;;;6.18;;